sensor_id;sensor_type;location;lat;lon;timestamp;P1;durP1;ratioP1;P2;durP2;ratioP2
78740;SDS011;68062;48.726;9.370;2023-03-23T00:01:27;7.67;;;4.30;;
78740;SDS011;68062;48.726;9.370;2023-03-23T00:03:56;5.00;;;3.97;;
78740;SDS011;68062;48.726;9.370;2023-03-23T00:06:25;6.23;;;3.90;;
78740;SDS011;68062;48.726;9.370;2023-03-23T00:08:54;5.80;;;4.50;;
78740;SDS011;68062;48.726;9.370;2023-03-23T00:11:27;5.70;;;4.13;;
78740;SDS011;68062;48.726;9.370;2023-03-23T00:13:55;7.20;;;3.60;;
78740;SDS011;68062;48.726;9.370;2023-03-23T00:16:26;7.63;;;3.60;;
78740;SDS011;68062;48.726;9.370;2023-03-23T00:18:58;4.73;;;4.30;;
78740;SDS011;68062;48.726;9.370;2023-03-23T00:21:27;6.43;;;3.87;;
78740;SDS011;68062;48.726;9.370;2023-03-23T00:24:01;4.77;;;3.80;;
78740;SDS011;68062;48.726;9.370;2023-03-23T00:26:31;4.77;;;3.60;;
78740;SDS011;68062;48.726;9.370;2023-03-23T00:29:00;3.80;;;3.20;;
78740;SDS011;68062;48.726;9.370;2023-03-23T00:31:28;6.70;;;3.50;;
78740;SDS011;68062;48.726;9.370;2023-03-23T00:33:58;8.67;;;3.70;;
78740;SDS011;68062;48.726;9.370;2023-03-23T00:36:26;4.80;;;3.50;;
78740;SDS011;68062;48.726;9.370;2023-03-23T00:38:53;4.63;;;3.43;;
78740;SDS011;68062;48.726;9.370;2023-03-23T00:41:23;5.00;;;4.13;;
78740;SDS011;68062;48.726;9.370;2023-03-23T00:43:53;5.80;;;4.33;;
78740;SDS011;68062;48.726;9.370;2023-03-23T00:46:21;4.80;;;3.60;;
78740;SDS011;68062;48.726;9.370;2023-03-23T00:48:48;4.33;;;3.53;;
78740;SDS011;68062;48.726;9.370;2023-03-23T00:51:16;5.30;;;3.43;;
78740;SDS011;68062;48.726;9.370;2023-03-23T00:53:43;5.60;;;3.60;;
78740;SDS011;68062;48.726;9.370;2023-03-23T00:56:10;5.27;;;3.73;;
78740;SDS011;68062;48.726;9.370;2023-03-23T00:58:37;4.30;;;3.20;;
78740;SDS011;68062;48.726;9.370;2023-03-23T01:01:06;4.53;;;3.30;;
78740;SDS011;68062;48.726;9.370;2023-03-23T01:03:33;4.37;;;3.73;;
78740;SDS011;68062;48.726;9.370;2023-03-23T01:06:05;3.63;;;3.10;;
78740;SDS011;68062;48.726;9.370;2023-03-23T01:08:33;4.80;;;3.30;;
78740;SDS011;68062;48.726;9.370;2023-03-23T01:11:05;5.40;;;3.20;;
78740;SDS011;68062;48.726;9.370;2023-03-23T01:13:33;5.90;;;3.70;;
78740;SDS011;68062;48.726;9.370;2023-03-23T01:16:00;3.70;;;2.87;;
78740;SDS011;68062;48.726;9.370;2023-03-23T01:18:28;6.93;;;4.67;;
78740;SDS011;68062;48.726;9.370;2023-03-23T01:20:54;4.50;;;3.60;;
78740;SDS011;68062;48.726;9.370;2023-03-23T01:23:21;5.07;;;3.83;;
78740;SDS011;68062;48.726;9.370;2023-03-23T01:25:48;6.60;;;4.40;;
78740;SDS011;68062;48.726;9.370;2023-03-23T01:28:15;5.17;;;3.57;;
78740;SDS011;68062;48.726;9.370;2023-03-23T01:30:42;4.23;;;3.17;;
78740;SDS011;68062;48.726;9.370;2023-03-23T01:33:08;4.10;;;3.70;;
78740;SDS011;68062;48.726;9.370;2023-03-23T01:35:38;5.23;;;3.40;;
78740;SDS011;68062;48.726;9.370;2023-03-23T01:38:05;5.43;;;3.70;;
78740;SDS011;68062;48.726;9.370;2023-03-23T01:40:31;4.13;;;3.10;;
78740;SDS011;68062;48.726;9.370;2023-03-23T01:42:59;4.27;;;2.97;;
78740;SDS011;68062;48.726;9.370;2023-03-23T01:45:27;6.67;;;3.80;;
78740;SDS011;68062;48.726;9.370;2023-03-23T01:48:05;4.63;;;3.50;;
78740;SDS011;68062;48.726;9.370;2023-03-23T01:50:38;6.97;;;4.70;;
78740;SDS011;68062;48.726;9.370;2023-03-23T01:53:11;5.03;;;3.60;;
78740;SDS011;68062;48.726;9.370;2023-03-23T01:55:39;4.60;;;3.70;;
78740;SDS011;68062;48.726;9.370;2023-03-23T01:58:07;5.60;;;3.50;;
78740;SDS011;68062;48.726;9.370;2023-03-23T02:00:35;4.67;;;3.90;;
78740;SDS011;68062;48.726;9.370;2023-03-23T02:03:06;4.47;;;3.70;;
78740;SDS011;68062;48.726;9.370;2023-03-23T02:05:38;6.20;;;3.47;;
78740;SDS011;68062;48.726;9.370;2023-03-23T02:08:16;3.97;;;3.50;;
78740;SDS011;68062;48.726;9.370;2023-03-23T02:10:44;4.83;;;4.53;;
78740;SDS011;68062;48.726;9.370;2023-03-23T02:13:12;7.23;;;4.53;;
78740;SDS011;68062;48.726;9.370;2023-03-23T02:15:42;5.73;;;4.03;;
78740;SDS011;68062;48.726;9.370;2023-03-23T02:18:22;4.63;;;3.70;;
78740;SDS011;68062;48.726;9.370;2023-03-23T02:21:29;5.00;;;3.80;;
78740;SDS011;68062;48.726;9.370;2023-03-23T02:27:30;7.13;;;5.03;;
78740;SDS011;68062;48.726;9.370;2023-03-23T02:30:20;5.00;;;4.30;;
78740;SDS011;68062;48.726;9.370;2023-03-23T02:36:09;5.03;;;3.77;;
78740;SDS011;68062;48.726;9.370;2023-03-23T02:38:42;4.13;;;3.50;;
78740;SDS011;68062;48.726;9.370;2023-03-23T02:41:18;7.10;;;4.63;;
78740;SDS011;68062;48.726;9.370;2023-03-23T02:43:47;4.77;;;3.87;;
78740;SDS011;68062;48.726;9.370;2023-03-23T02:46:16;3.97;;;3.40;;
78740;SDS011;68062;48.726;9.370;2023-03-23T02:48:43;3.50;;;3.30;;
78740;SDS011;68062;48.726;9.370;2023-03-23T02:51:16;4.57;;;3.80;;
78740;SDS011;68062;48.726;9.370;2023-03-23T02:53:46;6.03;;;3.87;;
78740;SDS011;68062;48.726;9.370;2023-03-23T02:56:17;4.43;;;3.07;;
78740;SDS011;68062;48.726;9.370;2023-03-23T02:58:44;5.10;;;3.80;;
78740;SDS011;68062;48.726;9.370;2023-03-23T03:01:16;4.77;;;3.93;;
78740;SDS011;68062;48.726;9.370;2023-03-23T03:04:20;6.50;;;3.10;;
78740;SDS011;68062;48.726;9.370;2023-03-23T03:06:53;5.10;;;3.73;;
78740;SDS011;68062;48.726;9.370;2023-03-23T03:09:31;4.10;;;3.63;;
78740;SDS011;68062;48.726;9.370;2023-03-23T03:12:06;3.70;;;3.10;;
78740;SDS011;68062;48.726;9.370;2023-03-23T03:14:38;9.03;;;3.33;;
78740;SDS011;68062;48.726;9.370;2023-03-23T03:17:13;3.50;;;3.20;;
78740;SDS011;68062;48.726;9.370;2023-03-23T03:19:48;6.13;;;3.97;;
78740;SDS011;68062;48.726;9.370;2023-03-23T03:22:19;4.30;;;3.70;;
78740;SDS011;68062;48.726;9.370;2023-03-23T03:24:48;5.10;;;4.30;;
78740;SDS011;68062;48.726;9.370;2023-03-23T03:27:18;9.30;;;3.67;;
78740;SDS011;68062;48.726;9.370;2023-03-23T03:30:03;5.07;;;3.43;;
78740;SDS011;68062;48.726;9.370;2023-03-23T03:32:33;8.00;;;4.00;;
78740;SDS011;68062;48.726;9.370;2023-03-23T03:35:05;4.23;;;3.87;;
78740;SDS011;68062;48.726;9.370;2023-03-23T03:37:35;5.80;;;3.57;;
78740;SDS011;68062;48.726;9.370;2023-03-23T03:40:05;5.93;;;3.60;;
78740;SDS011;68062;48.726;9.370;2023-03-23T03:42:38;5.43;;;4.17;;
78740;SDS011;68062;48.726;9.370;2023-03-23T03:45:09;5.13;;;3.60;;
78740;SDS011;68062;48.726;9.370;2023-03-23T03:47:37;3.97;;;3.67;;
78740;SDS011;68062;48.726;9.370;2023-03-23T03:50:05;4.37;;;3.13;;
78740;SDS011;68062;48.726;9.370;2023-03-23T03:52:34;6.80;;;3.40;;
78740;SDS011;68062;48.726;9.370;2023-03-23T03:55:03;3.27;;;3.10;;
78740;SDS011;68062;48.726;9.370;2023-03-23T03:57:32;3.30;;;3.10;;
78740;SDS011;68062;48.726;9.370;2023-03-23T04:00:17;5.20;;;3.60;;
78740;SDS011;68062;48.726;9.370;2023-03-23T04:02:47;4.50;;;3.43;;
78740;SDS011;68062;48.726;9.370;2023-03-23T04:05:24;4.93;;;3.40;;
78740;SDS011;68062;48.726;9.370;2023-03-23T04:07:55;5.83;;;3.73;;
78740;SDS011;68062;48.726;9.370;2023-03-23T04:10:30;4.47;;;4.17;;
78740;SDS011;68062;48.726;9.370;2023-03-23T04:12:59;6.40;;;4.10;;
78740;SDS011;68062;48.726;9.370;2023-03-23T04:15:44;3.93;;;3.53;;
78740;SDS011;68062;48.726;9.370;2023-03-23T04:18:12;5.40;;;3.67;;
78740;SDS011;68062;48.726;9.370;2023-03-23T04:20:41;5.50;;;3.50;;
78740;SDS011;68062;48.726;9.370;2023-03-23T04:23:09;4.93;;;3.70;;
78740;SDS011;68062;48.726;9.370;2023-03-23T04:25:35;3.83;;;3.37;;
78740;SDS011;68062;48.726;9.370;2023-03-23T04:28:04;5.47;;;3.43;;
78740;SDS011;68062;48.726;9.370;2023-03-23T04:30:38;7.00;;;4.07;;
78740;SDS011;68062;48.726;9.370;2023-03-23T04:33:10;4.43;;;3.90;;
78740;SDS011;68062;48.726;9.370;2023-03-23T04:35:39;5.73;;;3.60;;
78740;SDS011;68062;48.726;9.370;2023-03-23T04:38:13;4.77;;;3.80;;
78740;SDS011;68062;48.726;9.370;2023-03-23T04:40:43;4.23;;;3.60;;
78740;SDS011;68062;48.726;9.370;2023-03-23T04:43:19;5.40;;;3.60;;
78740;SDS011;68062;48.726;9.370;2023-03-23T04:46:05;6.40;;;4.30;;
78740;SDS011;68062;48.726;9.370;2023-03-23T04:48:33;5.80;;;4.40;;
78740;SDS011;68062;48.726;9.370;2023-03-23T04:51:08;8.70;;;3.70;;
78740;SDS011;68062;48.726;9.370;2023-03-23T04:53:38;4.80;;;4.17;;
78740;SDS011;68062;48.726;9.370;2023-03-23T04:56:05;4.60;;;3.70;;
78740;SDS011;68062;48.726;9.370;2023-03-23T04:58:37;10.30;;;3.73;;
78740;SDS011;68062;48.726;9.370;2023-03-23T05:01:15;5.23;;;3.60;;
78740;SDS011;68062;48.726;9.370;2023-03-23T05:03:54;6.23;;;3.90;;
78740;SDS011;68062;48.726;9.370;2023-03-23T05:06:21;6.03;;;4.20;;
78740;SDS011;68062;48.726;9.370;2023-03-23T05:08:52;6.30;;;4.87;;
78740;SDS011;68062;48.726;9.370;2023-03-23T05:11:20;6.50;;;4.17;;
78740;SDS011;68062;48.726;9.370;2023-03-23T05:13:48;3.93;;;3.73;;
78740;SDS011;68062;48.726;9.370;2023-03-23T05:16:15;4.03;;;3.77;;
78740;SDS011;68062;48.726;9.370;2023-03-23T05:18:43;8.60;;;4.90;;
78740;SDS011;68062;48.726;9.370;2023-03-23T05:21:15;7.03;;;4.33;;
78740;SDS011;68062;48.726;9.370;2023-03-23T05:23:47;7.40;;;4.93;;
78740;SDS011;68062;48.726;9.370;2023-03-23T05:26:21;6.43;;;4.63;;
78740;SDS011;68062;48.726;9.370;2023-03-23T05:28:53;7.33;;;5.13;;
78740;SDS011;68062;48.726;9.370;2023-03-23T05:31:35;9.70;;;5.00;;
78740;SDS011;68062;48.726;9.370;2023-03-23T05:34:04;7.63;;;4.20;;
78740;SDS011;68062;48.726;9.370;2023-03-23T05:36:37;8.23;;;4.30;;
78740;SDS011;68062;48.726;9.370;2023-03-23T05:39:28;5.63;;;3.67;;
78740;SDS011;68062;48.726;9.370;2023-03-23T05:42:16;6.30;;;4.07;;
78740;SDS011;68062;48.726;9.370;2023-03-23T05:44:48;10.70;;;5.27;;
78740;SDS011;68062;48.726;9.370;2023-03-23T05:47:16;7.20;;;4.60;;
78740;SDS011;68062;48.726;9.370;2023-03-23T05:49:50;6.97;;;4.50;;
78740;SDS011;68062;48.726;9.370;2023-03-23T05:52:17;8.37;;;4.53;;
78740;SDS011;68062;48.726;9.370;2023-03-23T05:54:46;5.40;;;4.90;;
78740;SDS011;68062;48.726;9.370;2023-03-23T05:57:15;6.80;;;4.87;;
78740;SDS011;68062;48.726;9.370;2023-03-23T05:59:46;8.23;;;5.07;;
78740;SDS011;68062;48.726;9.370;2023-03-23T06:02:19;7.40;;;4.50;;
78740;SDS011;68062;48.726;9.370;2023-03-23T06:04:45;9.33;;;5.30;;
78740;SDS011;68062;48.726;9.370;2023-03-23T06:07:20;7.77;;;4.80;;
78740;SDS011;68062;48.726;9.370;2023-03-23T06:09:56;6.77;;;5.03;;
78740;SDS011;68062;48.726;9.370;2023-03-23T06:12:23;11.37;;;5.57;;
78740;SDS011;68062;48.726;9.370;2023-03-23T06:15:02;12.50;;;7.93;;
78740;SDS011;68062;48.726;9.370;2023-03-23T06:17:51;15.00;;;6.70;;
78740;SDS011;68062;48.726;9.370;2023-03-23T06:20:27;10.10;;;5.63;;
78740;SDS011;68062;48.726;9.370;2023-03-23T06:22:55;13.43;;;7.73;;
78740;SDS011;68062;48.726;9.370;2023-03-23T06:25:31;10.97;;;7.33;;
78740;SDS011;68062;48.726;9.370;2023-03-23T06:28:00;11.43;;;6.87;;
78740;SDS011;68062;48.726;9.370;2023-03-23T06:30:27;10.63;;;6.40;;
78740;SDS011;68062;48.726;9.370;2023-03-23T06:32:55;9.13;;;6.40;;
78740;SDS011;68062;48.726;9.370;2023-03-23T06:35:44;11.80;;;5.60;;
78740;SDS011;68062;48.726;9.370;2023-03-23T06:38:18;10.23;;;5.40;;
78740;SDS011;68062;48.726;9.370;2023-03-23T06:40:51;9.43;;;5.43;;
78740;SDS011;68062;48.726;9.370;2023-03-23T06:43:19;11.43;;;6.60;;
78740;SDS011;68062;48.726;9.370;2023-03-23T06:45:51;9.53;;;5.97;;
78740;SDS011;68062;48.726;9.370;2023-03-23T06:48:35;11.20;;;5.93;;
78740;SDS011;68062;48.726;9.370;2023-03-23T06:51:04;10.93;;;7.30;;
78740;SDS011;68062;48.726;9.370;2023-03-23T06:53:33;9.07;;;6.27;;
78740;SDS011;68062;48.726;9.370;2023-03-23T06:56:02;10.47;;;6.40;;
78740;SDS011;68062;48.726;9.370;2023-03-23T06:58:31;8.43;;;6.07;;
78740;SDS011;68062;48.726;9.370;2023-03-23T07:00:59;9.97;;;6.93;;
78740;SDS011;68062;48.726;9.370;2023-03-23T07:03:34;10.20;;;7.30;;
78740;SDS011;68062;48.726;9.370;2023-03-23T07:06:01;9.80;;;6.80;;
78740;SDS011;68062;48.726;9.370;2023-03-23T07:08:33;9.00;;;6.80;;
78740;SDS011;68062;48.726;9.370;2023-03-23T07:11:00;12.70;;;7.00;;
78740;SDS011;68062;48.726;9.370;2023-03-23T07:13:30;11.00;;;6.57;;
78740;SDS011;68062;48.726;9.370;2023-03-23T07:15:59;8.57;;;6.47;;
78740;SDS011;68062;48.726;9.370;2023-03-23T07:18:27;8.27;;;5.27;;
78740;SDS011;68062;48.726;9.370;2023-03-23T07:20:58;8.80;;;6.70;;
78740;SDS011;68062;48.726;9.370;2023-03-23T07:23:30;7.83;;;6.03;;
78740;SDS011;68062;48.726;9.370;2023-03-23T07:26:02;11.33;;;5.50;;
78740;SDS011;68062;48.726;9.370;2023-03-23T07:28:37;9.10;;;6.17;;
78740;SDS011;68062;48.726;9.370;2023-03-23T07:31:16;13.97;;;6.20;;
78740;SDS011;68062;48.726;9.370;2023-03-23T07:33:43;13.13;;;7.80;;
78740;SDS011;68062;48.726;9.370;2023-03-23T07:36:10;17.80;;;8.10;;
78740;SDS011;68062;48.726;9.370;2023-03-23T07:38:37;9.77;;;7.20;;
78740;SDS011;68062;48.726;9.370;2023-03-23T07:41:04;9.80;;;7.20;;
78740;SDS011;68062;48.726;9.370;2023-03-23T07:43:32;12.00;;;6.93;;
78740;SDS011;68062;48.726;9.370;2023-03-23T07:46:10;10.73;;;7.30;;
78740;SDS011;68062;48.726;9.370;2023-03-23T07:48:47;8.87;;;6.50;;
78740;SDS011;68062;48.726;9.370;2023-03-23T07:51:16;19.70;;;11.90;;
78740;SDS011;68062;48.726;9.370;2023-03-23T07:53:46;15.20;;;9.67;;
78740;SDS011;68062;48.726;9.370;2023-03-23T07:56:32;13.27;;;7.77;;
78740;SDS011;68062;48.726;9.370;2023-03-23T07:59:12;14.57;;;7.50;;
78740;SDS011;68062;48.726;9.370;2023-03-23T08:01:41;10.93;;;6.63;;
78740;SDS011;68062;48.726;9.370;2023-03-23T08:04:27;18.10;;;8.77;;
78740;SDS011;68062;48.726;9.370;2023-03-23T08:07:09;11.10;;;6.93;;
78740;SDS011;68062;48.726;9.370;2023-03-23T08:10:04;20.00;;;10.00;;
78740;SDS011;68062;48.726;9.370;2023-03-23T08:12:51;16.00;;;9.77;;
78740;SDS011;68062;48.726;9.370;2023-03-23T08:15:42;14.60;;;7.80;;
78740;SDS011;68062;48.726;9.370;2023-03-23T08:18:50;14.83;;;8.70;;
78740;SDS011;68062;48.726;9.370;2023-03-23T08:21:43;10.83;;;7.73;;
78740;SDS011;68062;48.726;9.370;2023-03-23T08:24:40;10.60;;;7.17;;
78740;SDS011;68062;48.726;9.370;2023-03-23T08:27:26;7.90;;;6.70;;
78740;SDS011;68062;48.726;9.370;2023-03-23T08:30:11;7.73;;;7.20;;
78740;SDS011;68062;48.726;9.370;2023-03-23T08:33:01;9.90;;;7.00;;
78740;SDS011;68062;48.726;9.370;2023-03-23T08:35:55;7.40;;;5.93;;
78740;SDS011;68062;48.726;9.370;2023-03-23T08:38:41;6.30;;;5.70;;
78740;SDS011;68062;48.726;9.370;2023-03-23T08:41:29;8.27;;;5.10;;
78740;SDS011;68062;48.726;9.370;2023-03-23T08:44:23;6.10;;;3.90;;
78740;SDS011;68062;48.726;9.370;2023-03-23T08:47:05;3.93;;;3.27;;
78740;SDS011;68062;48.726;9.370;2023-03-23T08:49:52;4.93;;;2.57;;
78740;SDS011;68062;48.726;9.370;2023-03-23T08:52:28;2.00;;;1.90;;
78740;SDS011;68062;48.726;9.370;2023-03-23T08:55:31;4.23;;;1.50;;
78740;SDS011;68062;48.726;9.370;2023-03-23T08:58:16;2.27;;;2.07;;
78740;SDS011;68062;48.726;9.370;2023-03-23T09:00:49;1.93;;;1.63;;
78740;SDS011;68062;48.726;9.370;2023-03-23T09:03:26;1.87;;;1.77;;
78740;SDS011;68062;48.726;9.370;2023-03-23T09:06:09;3.23;;;1.90;;
78740;SDS011;68062;48.726;9.370;2023-03-23T09:08:45;3.70;;;1.67;;
78740;SDS011;68062;48.726;9.370;2023-03-23T09:11:12;3.97;;;1.77;;
78740;SDS011;68062;48.726;9.370;2023-03-23T09:13:39;2.60;;;1.93;;
78740;SDS011;68062;48.726;9.370;2023-03-23T09:16:06;1.47;;;1.37;;
78740;SDS011;68062;48.726;9.370;2023-03-23T09:18:34;2.93;;;1.90;;
78740;SDS011;68062;48.726;9.370;2023-03-23T09:21:01;4.13;;;2.27;;
78740;SDS011;68062;48.726;9.370;2023-03-23T09:23:29;2.27;;;1.80;;
78740;SDS011;68062;48.726;9.370;2023-03-23T09:25:58;3.53;;;1.90;;
78740;SDS011;68062;48.726;9.370;2023-03-23T09:28:28;2.83;;;2.20;;
78740;SDS011;68062;48.726;9.370;2023-03-23T09:30:57;3.93;;;1.87;;
78740;SDS011;68062;48.726;9.370;2023-03-23T09:33:24;2.00;;;1.50;;
78740;SDS011;68062;48.726;9.370;2023-03-23T09:35:53;3.03;;;2.13;;
78740;SDS011;68062;48.726;9.370;2023-03-23T09:38:20;2.03;;;1.70;;
78740;SDS011;68062;48.726;9.370;2023-03-23T09:40:53;1.80;;;1.43;;
78740;SDS011;68062;48.726;9.370;2023-03-23T09:43:32;3.57;;;1.47;;
78740;SDS011;68062;48.726;9.370;2023-03-23T09:46:15;1.30;;;1.20;;
78740;SDS011;68062;48.726;9.370;2023-03-23T09:48:50;2.50;;;1.40;;
78740;SDS011;68062;48.726;9.370;2023-03-23T09:51:23;2.30;;;1.40;;
78740;SDS011;68062;48.726;9.370;2023-03-23T09:54:04;1.60;;;1.23;;
78740;SDS011;68062;48.726;9.370;2023-03-23T09:56:35;1.70;;;1.33;;
78740;SDS011;68062;48.726;9.370;2023-03-23T09:59:05;2.13;;;1.50;;
78740;SDS011;68062;48.726;9.370;2023-03-23T10:01:42;3.27;;;1.50;;
78740;SDS011;68062;48.726;9.370;2023-03-23T10:04:15;1.70;;;1.60;;
78740;SDS011;68062;48.726;9.370;2023-03-23T10:06:58;2.30;;;1.90;;
78740;SDS011;68062;48.726;9.370;2023-03-23T10:09:31;2.90;;;1.47;;
78740;SDS011;68062;48.726;9.370;2023-03-23T10:12:02;1.27;;;1.20;;
78740;SDS011;68062;48.726;9.370;2023-03-23T10:17:37;2.27;;;1.70;;
78740;SDS011;68062;48.726;9.370;2023-03-23T10:20:14;4.53;;;1.97;;
78740;SDS011;68062;48.726;9.370;2023-03-23T10:26:01;3.93;;;1.90;;
78740;SDS011;68062;48.726;9.370;2023-03-23T10:28:37;1.97;;;1.73;;
78740;SDS011;68062;48.726;9.370;2023-03-23T10:31:09;1.73;;;1.63;;
78740;SDS011;68062;48.726;9.370;2023-03-23T10:33:40;1.50;;;1.40;;
78740;SDS011;68062;48.726;9.370;2023-03-23T10:36:12;5.63;;;1.90;;
78740;SDS011;68062;48.726;9.370;2023-03-23T10:38:45;1.70;;;1.60;;
78740;SDS011;68062;48.726;9.370;2023-03-23T10:41:17;1.53;;;1.50;;
78740;SDS011;68062;48.726;9.370;2023-03-23T10:43:46;1.50;;;1.47;;
78740;SDS011;68062;48.726;9.370;2023-03-23T10:50:11;2.27;;;1.80;;
78740;SDS011;68062;48.726;9.370;2023-03-23T10:52:41;1.70;;;1.57;;
78740;SDS011;68062;48.726;9.370;2023-03-23T10:55:20;4.10;;;1.90;;
78740;SDS011;68062;48.726;9.370;2023-03-23T10:57:58;1.43;;;1.10;;
78740;SDS011;68062;48.726;9.370;2023-03-23T11:00:28;2.87;;;2.10;;
78740;SDS011;68062;48.726;9.370;2023-03-23T11:03:00;1.90;;;1.63;;
78740;SDS011;68062;48.726;9.370;2023-03-23T11:05:34;2.80;;;1.40;;
78740;SDS011;68062;48.726;9.370;2023-03-23T11:08:03;2.53;;;1.60;;
78740;SDS011;68062;48.726;9.370;2023-03-23T11:10:38;3.60;;;1.97;;
78740;SDS011;68062;48.726;9.370;2023-03-23T11:16:55;1.43;;;1.43;;
78740;SDS011;68062;48.726;9.370;2023-03-23T11:19:24;2.03;;;1.63;;
78740;SDS011;68062;48.726;9.370;2023-03-23T11:22:13;2.13;;;1.77;;
78740;SDS011;68062;48.726;9.370;2023-03-23T11:24:45;2.67;;;1.50;;
78740;SDS011;68062;48.726;9.370;2023-03-23T11:27:14;2.23;;;1.60;;
78740;SDS011;68062;48.726;9.370;2023-03-23T11:29:45;2.10;;;1.33;;
78740;SDS011;68062;48.726;9.370;2023-03-23T11:32:17;2.20;;;1.50;;
78740;SDS011;68062;48.726;9.370;2023-03-23T11:34:45;2.90;;;2.13;;
78740;SDS011;68062;48.726;9.370;2023-03-23T11:37:16;2.47;;;1.67;;
78740;SDS011;68062;48.726;9.370;2023-03-23T11:39:53;1.60;;;1.60;;
78740;SDS011;68062;48.726;9.370;2023-03-23T11:42:22;2.50;;;1.57;;
78740;SDS011;68062;48.726;9.370;2023-03-23T11:44:53;2.30;;;1.50;;
78740;SDS011;68062;48.726;9.370;2023-03-23T11:47:23;1.73;;;1.60;;
78740;SDS011;68062;48.726;9.370;2023-03-23T11:49:59;2.43;;;1.70;;
78740;SDS011;68062;48.726;9.370;2023-03-23T11:52:39;3.37;;;2.03;;
78740;SDS011;68062;48.726;9.370;2023-03-23T11:55:13;2.73;;;1.97;;
78740;SDS011;68062;48.726;9.370;2023-03-23T11:57:44;1.93;;;1.87;;
78740;SDS011;68062;48.726;9.370;2023-03-23T12:00:13;2.70;;;1.70;;
78740;SDS011;68062;48.726;9.370;2023-03-23T12:05:52;2.37;;;2.00;;
78740;SDS011;68062;48.726;9.370;2023-03-23T12:08:31;1.87;;;1.70;;
78740;SDS011;68062;48.726;9.370;2023-03-23T12:11:10;3.00;;;1.93;;
78740;SDS011;68062;48.726;9.370;2023-03-23T12:13:54;2.40;;;1.67;;
78740;SDS011;68062;48.726;9.370;2023-03-23T12:16:32;2.57;;;1.70;;
78740;SDS011;68062;48.726;9.370;2023-03-23T12:19:10;5.70;;;1.70;;
78740;SDS011;68062;48.726;9.370;2023-03-23T12:21:45;2.67;;;2.00;;
78740;SDS011;68062;48.726;9.370;2023-03-23T12:24:24;1.93;;;1.47;;
78740;SDS011;68062;48.726;9.370;2023-03-23T12:27:00;1.73;;;1.47;;
78740;SDS011;68062;48.726;9.370;2023-03-23T12:29:35;1.93;;;1.87;;
78740;SDS011;68062;48.726;9.370;2023-03-23T12:35:05;2.30;;;1.47;;
78740;SDS011;68062;48.726;9.370;2023-03-23T12:40:54;1.93;;;1.63;;
78740;SDS011;68062;48.726;9.370;2023-03-23T12:43:31;2.17;;;1.80;;
78740;SDS011;68062;48.726;9.370;2023-03-23T12:46:11;1.53;;;1.43;;
78740;SDS011;68062;48.726;9.370;2023-03-23T12:48:48;1.53;;;1.50;;
78740;SDS011;68062;48.726;9.370;2023-03-23T12:51:20;2.70;;;2.20;;
78740;SDS011;68062;48.726;9.370;2023-03-23T12:53:52;2.70;;;1.63;;
78740;SDS011;68062;48.726;9.370;2023-03-23T12:56:29;2.10;;;1.60;;
78740;SDS011;68062;48.726;9.370;2023-03-23T12:59:02;4.07;;;1.83;;
78740;SDS011;68062;48.726;9.370;2023-03-23T13:01:38;1.50;;;1.40;;
78740;SDS011;68062;48.726;9.370;2023-03-23T13:04:10;1.70;;;1.50;;
78740;SDS011;68062;48.726;9.370;2023-03-23T13:06:42;1.63;;;1.53;;
78740;SDS011;68062;48.726;9.370;2023-03-23T13:09:13;2.27;;;1.53;;
78740;SDS011;68062;48.726;9.370;2023-03-23T13:11:44;4.27;;;1.67;;
78740;SDS011;68062;48.726;9.370;2023-03-23T13:14:15;1.83;;;1.73;;
78740;SDS011;68062;48.726;9.370;2023-03-23T13:16:54;2.30;;;1.53;;
78740;SDS011;68062;48.726;9.370;2023-03-23T13:19:29;1.43;;;1.40;;
78740;SDS011;68062;48.726;9.370;2023-03-23T13:22:02;1.20;;;1.10;;
78740;SDS011;68062;48.726;9.370;2023-03-23T13:24:35;2.70;;;1.50;;
78740;SDS011;68062;48.726;9.370;2023-03-23T13:27:22;2.40;;;1.80;;
78740;SDS011;68062;48.726;9.370;2023-03-23T13:29:50;1.57;;;1.50;;
78740;SDS011;68062;48.726;9.370;2023-03-23T13:32:17;2.03;;;1.50;;
78740;SDS011;68062;48.726;9.370;2023-03-23T13:34:45;2.17;;;1.43;;
78740;SDS011;68062;48.726;9.370;2023-03-23T13:37:19;2.50;;;1.73;;
78740;SDS011;68062;48.726;9.370;2023-03-23T13:39:49;1.53;;;1.43;;
78740;SDS011;68062;48.726;9.370;2023-03-23T13:42:23;2.40;;;1.80;;
78740;SDS011;68062;48.726;9.370;2023-03-23T13:44:55;2.03;;;1.70;;
78740;SDS011;68062;48.726;9.370;2023-03-23T13:47:36;4.97;;;2.10;;
78740;SDS011;68062;48.726;9.370;2023-03-23T13:50:09;2.17;;;1.80;;
78740;SDS011;68062;48.726;9.370;2023-03-23T13:52:38;2.03;;;1.60;;
78740;SDS011;68062;48.726;9.370;2023-03-23T13:55:17;2.47;;;1.90;;
78740;SDS011;68062;48.726;9.370;2023-03-23T13:57:51;2.40;;;2.23;;
78740;SDS011;68062;48.726;9.370;2023-03-23T14:00:44;1.60;;;1.50;;
78740;SDS011;68062;48.726;9.370;2023-03-23T14:03:15;2.27;;;1.50;;
78740;SDS011;68062;48.726;9.370;2023-03-23T14:05:45;2.30;;;1.80;;
78740;SDS011;68062;48.726;9.370;2023-03-23T14:08:20;2.20;;;1.90;;
78740;SDS011;68062;48.726;9.370;2023-03-23T14:10:51;2.50;;;1.87;;
78740;SDS011;68062;48.726;9.370;2023-03-23T14:13:23;2.17;;;1.87;;
78740;SDS011;68062;48.726;9.370;2023-03-23T14:15:55;3.10;;;1.83;;
78740;SDS011;68062;48.726;9.370;2023-03-23T14:18:24;4.20;;;1.70;;
78740;SDS011;68062;48.726;9.370;2023-03-23T14:20:53;5.90;;;1.77;;
78740;SDS011;68062;48.726;9.370;2023-03-23T14:23:22;2.53;;;2.33;;
78740;SDS011;68062;48.726;9.370;2023-03-23T14:25:56;2.00;;;1.80;;
78740;SDS011;68062;48.726;9.370;2023-03-23T14:28:35;1.77;;;1.67;;
78740;SDS011;68062;48.726;9.370;2023-03-23T14:31:04;1.70;;;1.60;;
78740;SDS011;68062;48.726;9.370;2023-03-23T14:33:40;1.80;;;1.60;;
78740;SDS011;68062;48.726;9.370;2023-03-23T14:36:08;1.77;;;1.70;;
78740;SDS011;68062;48.726;9.370;2023-03-23T14:38:34;2.00;;;1.93;;
78740;SDS011;68062;48.726;9.370;2023-03-23T14:41:03;2.10;;;1.67;;
78740;SDS011;68062;48.726;9.370;2023-03-23T14:43:33;4.67;;;2.10;;
78740;SDS011;68062;48.726;9.370;2023-03-23T14:46:04;2.33;;;1.87;;
78740;SDS011;68062;48.726;9.370;2023-03-23T14:48:34;2.70;;;1.60;;
78740;SDS011;68062;48.726;9.370;2023-03-23T14:51:02;4.40;;;2.23;;
78740;SDS011;68062;48.726;9.370;2023-03-23T14:53:33;3.70;;;1.73;;
78740;SDS011;68062;48.726;9.370;2023-03-23T14:56:03;2.80;;;1.93;;
78740;SDS011;68062;48.726;9.370;2023-03-23T14:58:37;3.20;;;2.00;;
78740;SDS011;68062;48.726;9.370;2023-03-23T15:01:06;4.53;;;1.80;;
78740;SDS011;68062;48.726;9.370;2023-03-23T15:03:35;2.33;;;2.00;;
78740;SDS011;68062;48.726;9.370;2023-03-23T15:06:05;2.37;;;1.57;;
78740;SDS011;68062;48.726;9.370;2023-03-23T15:08:37;2.80;;;2.30;;
78740;SDS011;68062;48.726;9.370;2023-03-23T15:11:05;2.30;;;2.10;;
78740;SDS011;68062;48.726;9.370;2023-03-23T15:13:35;2.13;;;1.70;;
78740;SDS011;68062;48.726;9.370;2023-03-23T15:16:12;2.33;;;2.13;;
78740;SDS011;68062;48.726;9.370;2023-03-23T15:18:44;3.70;;;2.47;;
78740;SDS011;68062;48.726;9.370;2023-03-23T15:21:20;2.20;;;1.90;;
78740;SDS011;68062;48.726;9.370;2023-03-23T15:23:50;1.83;;;1.70;;
78740;SDS011;68062;48.726;9.370;2023-03-23T15:26:22;4.20;;;2.43;;
78740;SDS011;68062;48.726;9.370;2023-03-23T15:29:00;4.80;;;2.00;;
78740;SDS011;68062;48.726;9.370;2023-03-23T15:31:28;2.30;;;2.00;;
78740;SDS011;68062;48.726;9.370;2023-03-23T15:33:55;2.87;;;1.80;;
78740;SDS011;68062;48.726;9.370;2023-03-23T15:36:26;2.40;;;2.13;;
78740;SDS011;68062;48.726;9.370;2023-03-23T15:38:59;3.50;;;1.80;;
78740;SDS011;68062;48.726;9.370;2023-03-23T15:41:26;1.87;;;1.70;;
78740;SDS011;68062;48.726;9.370;2023-03-23T15:43:55;3.63;;;1.90;;
78740;SDS011;68062;48.726;9.370;2023-03-23T15:46:28;3.67;;;2.63;;
78740;SDS011;68062;48.726;9.370;2023-03-23T15:49:04;3.13;;;2.03;;
78740;SDS011;68062;48.726;9.370;2023-03-23T15:51:35;2.70;;;1.80;;